createdAt,value
2019-06-10T00:00:21.218Z,17.20
2019-06-10T00:01:21.342Z,17.26
2019-06-10T00:02:21.275Z,17.20
2019-06-10T00:03:20.660Z,17.26
2019-06-10T00:04:21.934Z,17.24
2019-06-10T00:05:21.473Z,17.20
2019-06-10T00:06:20.989Z,17.29
2019-06-10T00:07:20.986Z,17.19
2019-06-10T00:08:20.881Z,17.06
2019-06-10T00:09:21.081Z,17.15
2019-06-10T00:10:21.339Z,17.19
2019-06-10T00:11:21.204Z,17.19
2019-06-10T00:12:20.989Z,17.09
2019-06-10T00:13:20.971Z,17.09
2019-06-10T00:14:21.050Z,17.04
2019-06-10T00:15:21.213Z,17.06
2019-06-10T00:16:20.890Z,17.04
2019-06-10T00:17:21.214Z,17.08
2019-06-10T00:18:35.481Z,17.06
2019-06-10T00:19:21.621Z,17.06
2019-06-10T00:20:18.872Z,16.93
2019-06-10T00:21:18.872Z,16.96
2019-06-10T00:22:21.394Z,16.93
2019-06-10T00:23:21.038Z,16.84
2019-06-10T00:24:21.051Z,16.89
2019-06-10T00:25:20.874Z,16.76
2019-06-10T00:26:21.468Z,16.78
2019-06-10T00:27:18.792Z,16.83
2019-06-10T00:28:18.793Z,16.81
2019-06-10T00:29:18.762Z,16.76
2019-06-10T00:30:20.823Z,16.76
2019-06-10T00:31:20.776Z,16.69
2019-06-10T00:32:21.314Z,16.75
2019-06-10T00:33:18.746Z,16.76
2019-06-10T00:34:20.773Z,16.74
2019-06-10T00:35:20.966Z,16.58
2019-06-10T00:36:18.684Z,16.64
2019-06-10T00:37:21.120Z,16.66
2019-06-10T00:38:21.221Z,16.60
2019-06-10T00:39:18.670Z,16.69
2019-06-10T00:40:21.308Z,16.68
2019-06-10T00:41:18.666Z,16.68
2019-06-10T00:42:21.167Z,16.64
2019-06-10T00:43:18.617Z,16.60
2019-06-10T00:44:20.598Z,16.56
2019-06-10T00:45:21.401Z,16.50
2019-06-10T00:46:21.059Z,16.58
2019-06-10T00:47:18.568Z,16.39
2019-06-10T00:48:28.315Z,16.50
2019-06-10T00:49:21.342Z,16.49
2019-06-10T00:50:18.534Z,16.39
2019-06-10T00:51:20.785Z,16.43
2019-06-10T00:52:18.513Z,16.42
2019-06-10T00:53:20.940Z,16.47
2019-06-10T00:54:18.489Z,16.49
2019-06-10T00:55:21.038Z,16.41
2019-06-10T00:56:18.476Z,16.46
2019-06-10T00:57:20.758Z,16.47
2019-06-10T00:58:18.440Z,16.33
2019-06-10T00:59:18.429Z,16.32
2019-06-10T01:00:25.617Z,16.32
2019-06-10T01:01:21.762Z,16.28
2019-06-10T01:02:18.410Z,16.23
2019-06-10T01:03:20.757Z,16.29
2019-06-10T01:04:18.372Z,16.10
2019-06-10T01:05:20.620Z,16.16
2019-06-10T01:06:18.365Z,16.16
2019-06-10T01:07:18.336Z,16.10
2019-06-10T01:08:18.350Z,16.09
2019-06-10T01:09:18.321Z,16.08
2019-06-10T01:10:18.324Z,16.05
2019-06-10T01:11:21.272Z,16.09
2019-06-10T01:12:21.146Z,16.04
2019-06-10T01:13:20.630Z,16.01
2019-06-10T01:14:18.254Z,16.02
2019-06-10T01:15:18.248Z,15.97
2019-06-10T01:16:18.248Z,15.97
2019-06-10T01:17:18.232Z,15.94
2019-06-10T01:18:31.951Z,15.91
2019-06-10T01:19:21.672Z,15.90
2019-06-10T01:20:18.192Z,15.95
2019-06-10T01:21:18.202Z,15.91
2019-06-10T01:22:18.168Z,15.90
2019-06-10T01:23:18.160Z,15.91
2019-06-10T01:24:18.145Z,15.86
2019-06-10T01:25:18.136Z,15.86
2019-06-10T01:26:18.374Z,15.83
2019-06-10T01:27:18.175Z,15.73
2019-06-10T01:28:18.581Z,15.70
2019-06-10T01:29:18.198Z,15.76
2019-06-10T01:30:23.932Z,15.65
2019-06-10T01:31:23.908Z,15.68
2019-06-10T01:32:21.526Z,15.72
2019-06-10T01:33:18.045Z,15.67
2019-06-10T01:34:18.419Z,15.73
2019-06-10T01:35:18.028Z,15.62
2019-06-10T01:36:18.816Z,15.76
2019-06-10T01:37:18.002Z,15.59
2019-06-10T01:38:18.403Z,15.75
2019-06-10T01:39:18.108Z,15.68
2019-06-10T01:40:18.107Z,15.64
2019-06-10T01:41:17.954Z,15.64
2019-06-10T01:42:17.937Z,15.54
2019-06-10T01:43:18.442Z,15.54
2019-06-10T01:44:17.940Z,15.52
2019-06-10T01:45:17.906Z,15.61
2019-06-10T01:46:17.902Z,15.58
2019-06-10T01:47:17.892Z,15.44
2019-06-10T01:48:17.994Z,15.44
2019-06-10T01:49:18.199Z,15.47
2019-06-10T01:50:19.514Z,15.46
2019-06-10T01:51:17.840Z,15.46
2019-06-10T01:52:18.356Z,15.44
2019-06-10T01:53:18.858Z,15.40
2019-06-10T01:54:18.444Z,15.36
2019-06-10T01:55:18.259Z,15.33
2019-06-10T01:56:18.632Z,15.39
2019-06-10T01:57:18.672Z,15.37
2019-06-10T01:58:20.988Z,15.22
2019-06-10T01:59:19.303Z,15.21
2019-06-10T02:00:22.707Z,15.25
2019-06-10T02:01:22.810Z,15.24
2019-06-10T02:02:19.056Z,15.22
2019-06-10T02:03:18.934Z,15.21
2019-06-10T02:04:19.301Z,15.27
2019-06-10T02:05:19.595Z,15.18
2019-06-10T02:06:20.508Z,15.24
2019-06-10T02:07:20.429Z,15.14
2019-06-10T02:08:18.085Z,15.21
2019-06-10T02:09:18.785Z,15.21
2019-06-10T02:10:19.049Z,15.15
2019-06-10T02:11:18.946Z,15.21
2019-06-10T02:12:20.159Z,15.25
2019-06-10T02:13:21.621Z,15.15
2019-06-10T02:14:19.333Z,15.19
2019-06-10T02:15:18.463Z,15.21
2019-06-10T02:16:19.018Z,15.11
2019-06-10T02:17:18.828Z,15.11
2019-06-10T02:18:18.053Z,15.10
2019-06-10T02:19:18.682Z,15.11
2019-06-10T02:20:19.374Z,15.15
2019-06-10T02:21:18.323Z,15.14
2019-06-10T02:22:18.525Z,15.07
2019-06-10T02:23:18.640Z,15.02
2019-06-10T02:24:17.944Z,15.00
2019-06-10T02:25:17.715Z,15.15
2019-06-10T02:26:18.265Z,14.97
2019-06-10T02:27:17.499Z,14.99
2019-06-10T02:28:17.484Z,15.04
2019-06-10T02:29:17.412Z,15.04
2019-06-10T02:30:30.065Z,14.97
2019-06-10T02:31:22.838Z,14.88
2019-06-10T02:32:24.667Z,14.99
2019-06-10T02:33:22.777Z,14.84
2019-06-10T02:34:25.043Z,14.96
2019-06-10T02:35:32.249Z,14.88
2019-06-10T02:36:25.606Z,14.97
2019-06-10T02:37:22.510Z,14.97
2019-06-10T02:38:26.307Z,14.94
2019-06-10T02:39:25.890Z,14.89
2019-06-10T02:40:24.520Z,14.92
2019-06-10T02:41:22.177Z,15.03
2019-06-10T02:42:21.630Z,14.92
2019-06-10T02:43:22.440Z,14.84
2019-06-10T02:44:22.906Z,14.99
2019-06-10T02:45:22.788Z,14.94
2019-06-10T02:46:23.432Z,14.99
2019-06-10T02:47:21.347Z,14.94
2019-06-10T02:48:21.503Z,14.88
2019-06-10T02:49:35.593Z,14.94
2019-06-10T02:50:22.450Z,15.02
2019-06-10T02:51:22.083Z,15.02
2019-06-10T02:52:22.396Z,15.02
2019-06-10T02:53:19.749Z,15.03
2019-06-10T02:54:20.231Z,14.94
2019-06-10T02:55:20.314Z,15.02
2019-06-10T02:56:19.972Z,15.02
2019-06-10T02:57:18.737Z,14.89
2019-06-10T02:58:19.129Z,14.96
2019-06-10T02:59:18.221Z,14.91
2019-06-10T03:00:23.405Z,14.89
2019-06-10T03:01:21.084Z,14.94
2019-06-10T03:02:18.245Z,14.92
2019-06-10T03:03:22.868Z,14.82
2019-06-10T03:04:18.858Z,14.85
2019-06-10T03:05:19.423Z,14.85
2019-06-10T03:06:19.827Z,14.86
2019-06-10T03:07:18.030Z,14.92
2019-06-10T03:08:18.431Z,14.89
2019-06-10T03:09:18.398Z,14.86
2019-06-10T03:10:19.145Z,14.82
2019-06-10T03:11:19.229Z,14.78
2019-06-10T03:12:17.637Z,14.82
2019-06-10T03:13:17.625Z,14.92
2019-06-10T03:14:17.740Z,14.89
2019-06-10T03:15:17.901Z,14.81
2019-06-10T03:16:17.802Z,14.81
2019-06-10T03:17:17.768Z,14.72
2019-06-10T03:18:17.814Z,14.82
2019-06-10T03:19:33.272Z,14.73
2019-06-10T03:20:17.971Z,14.73
2019-06-10T03:21:17.896Z,14.73
2019-06-10T03:22:17.913Z,14.72
2019-06-10T03:23:17.934Z,14.81
2019-06-10T03:24:17.050Z,14.62
2019-06-10T03:25:16.790Z,14.68
2019-06-10T03:26:17.242Z,14.72
2019-06-10T03:27:16.761Z,14.68
2019-06-10T03:28:17.436Z,14.66
2019-06-10T03:29:16.739Z,14.79
2019-06-10T03:30:23.736Z,14.60
2019-06-10T03:31:18.802Z,14.72
2019-06-10T03:32:19.562Z,14.60
2019-06-10T03:33:19.743Z,14.63
2019-06-10T03:34:18.169Z,14.63
2019-06-10T03:35:17.375Z,14.66
2019-06-10T03:36:16.660Z,14.65
2019-06-10T03:37:16.664Z,14.79
2019-06-10T03:38:16.642Z,14.69
2019-06-10T03:39:16.626Z,14.82
2019-06-10T03:40:16.629Z,14.72
2019-06-10T03:41:16.615Z,14.78
2019-06-10T03:42:16.785Z,14.81
2019-06-10T03:43:16.741Z,14.86
2019-06-10T03:44:16.928Z,14.89
2019-06-10T03:45:17.459Z,14.88
2019-06-10T03:46:17.229Z,14.91
2019-06-10T03:47:17.061Z,14.86
2019-06-10T03:48:17.096Z,14.88
2019-06-10T03:49:17.134Z,14.88
2019-06-10T03:50:17.175Z,14.86
2019-06-10T03:51:17.193Z,14.89
2019-06-10T03:52:17.115Z,14.85
2019-06-10T03:53:17.288Z,14.88
2019-06-10T03:54:17.173Z,14.89
2019-06-10T03:55:17.278Z,14.89
2019-06-10T03:56:17.166Z,14.92
2019-06-10T03:57:17.153Z,14.99
2019-06-10T03:58:17.442Z,14.85
2019-06-10T03:59:17.188Z,14.91
2019-06-10T04:00:17.511Z,14.92
2019-06-10T04:01:17.381Z,14.96
2019-06-10T04:02:17.302Z,15.03
2019-06-10T04:03:17.333Z,14.96
2019-06-10T04:04:17.367Z,14.97
2019-06-10T04:05:17.488Z,14.99
2019-06-10T04:06:17.444Z,15.02
2019-06-10T04:07:18.007Z,14.92
2019-06-10T04:08:17.413Z,14.97
2019-06-10T04:09:17.379Z,15.06
2019-06-10T04:10:17.461Z,15.03
2019-06-10T04:11:17.409Z,14.99
2019-06-10T04:12:17.466Z,14.99
2019-06-10T04:13:17.283Z,14.91
2019-06-10T04:14:17.496Z,15.00
2019-06-10T04:15:17.522Z,15.03
2019-06-10T04:16:17.379Z,14.99
2019-06-10T04:17:17.499Z,15.00
2019-06-10T04:18:17.705Z,14.99
2019-06-10T04:19:16.181Z,15.02
2019-06-10T04:20:16.174Z,15.07
2019-06-10T04:21:16.177Z,14.99
2019-06-10T04:22:16.141Z,15.02
2019-06-10T04:23:16.134Z,15.07
2019-06-10T04:24:16.123Z,15.02
2019-06-10T04:25:16.115Z,15.14
2019-06-10T04:26:16.103Z,15.15
2019-06-10T04:27:16.101Z,15.19
2019-06-10T04:28:16.080Z,15.21
2019-06-10T04:29:16.071Z,15.17
2019-06-10T04:30:16.700Z,15.21
2019-06-10T04:31:16.047Z,15.21
2019-06-10T04:32:16.046Z,15.21
2019-06-10T04:33:16.027Z,15.33
2019-06-10T04:34:16.014Z,15.42
2019-06-10T04:35:15.995Z,15.29
2019-06-10T04:36:16.021Z,15.40
2019-06-10T04:37:15.995Z,15.24
2019-06-10T04:38:15.986Z,15.33
2019-06-10T04:39:15.954Z,15.33
2019-06-10T04:40:15.947Z,15.27
2019-06-10T04:41:15.934Z,15.27
2019-06-10T04:42:15.924Z,15.33
2019-06-10T04:43:15.914Z,15.29
2019-06-10T04:44:15.906Z,15.27
2019-06-10T04:45:15.881Z,15.28
2019-06-10T04:46:15.875Z,15.31
2019-06-10T04:47:15.868Z,15.25
2019-06-10T04:48:15.870Z,15.21
2019-06-10T04:49:15.866Z,15.25
2019-06-10T04:50:26.089Z,15.28
2019-06-10T04:51:16.816Z,15.29
2019-06-10T04:52:15.803Z,15.31
2019-06-10T04:53:15.793Z,15.28
2019-06-10T04:54:15.799Z,15.33
2019-06-10T04:55:15.798Z,15.33
2019-06-10T04:56:15.758Z,15.46
2019-06-10T04:57:15.747Z,15.42
2019-06-10T04:58:15.736Z,15.39
2019-06-10T04:59:15.724Z,15.42
2019-06-10T05:00:15.724Z,15.44
2019-06-10T05:01:15.732Z,15.44
2019-06-10T05:02:15.691Z,15.51
2019-06-10T05:03:15.679Z,15.55
2019-06-10T05:04:15.670Z,15.59
2019-06-10T05:05:15.660Z,15.54
2019-06-10T05:06:15.647Z,15.51
2019-06-10T05:07:15.651Z,15.51
2019-06-10T05:08:15.628Z,15.57
2019-06-10T05:09:15.625Z,15.58
2019-06-10T05:10:15.600Z,15.54
2019-06-10T05:11:15.600Z,15.54
2019-06-10T05:12:15.591Z,15.58
2019-06-10T05:13:15.567Z,15.59
2019-06-10T05:14:15.557Z,15.59
2019-06-10T05:15:15.555Z,15.54
2019-06-10T05:16:15.576Z,15.57
2019-06-10T05:17:15.529Z,15.57
2019-06-10T05:18:15.513Z,15.52
2019-06-10T05:19:15.502Z,15.57
2019-06-10T05:20:15.488Z,15.57
2019-06-10T05:21:15.475Z,15.57
2019-06-10T05:22:15.483Z,15.54
2019-06-10T05:23:15.465Z,15.57
2019-06-10T05:24:15.446Z,15.59
2019-06-10T05:25:15.439Z,15.72
2019-06-10T05:26:15.436Z,15.58
2019-06-10T05:27:15.411Z,15.73
2019-06-10T05:28:15.398Z,15.59
2019-06-10T05:29:15.393Z,15.73
2019-06-10T05:30:15.375Z,15.68
2019-06-10T05:31:15.367Z,15.62
2019-06-10T05:32:15.365Z,15.65
2019-06-10T05:33:15.340Z,15.67
2019-06-10T05:34:15.329Z,15.68
2019-06-10T05:35:15.318Z,15.68
2019-06-10T05:36:15.314Z,15.68
2019-06-10T05:37:15.313Z,15.73
2019-06-10T05:38:15.293Z,15.68
2019-06-10T05:39:15.283Z,15.79
2019-06-10T05:40:15.271Z,15.75
2019-06-10T05:41:15.255Z,15.83
2019-06-10T05:42:15.256Z,15.70
2019-06-10T05:43:15.239Z,15.70
2019-06-10T05:44:15.233Z,15.73
2019-06-10T05:45:15.208Z,15.77
2019-06-10T05:46:15.200Z,15.76
2019-06-10T05:47:15.184Z,15.83
2019-06-10T05:48:16.840Z,15.83
2019-06-10T05:49:15.183Z,15.88
2019-06-10T05:50:15.152Z,15.83
2019-06-10T05:51:15.142Z,15.75
2019-06-10T05:52:15.131Z,15.67
2019-06-10T05:53:15.126Z,15.73
2019-06-10T05:54:15.115Z,15.68
2019-06-10T05:55:15.116Z,15.72
2019-06-10T05:56:15.083Z,15.75
2019-06-10T05:57:15.071Z,15.82
2019-06-10T05:58:15.059Z,15.82
2019-06-10T05:59:15.050Z,15.92
2019-06-10T06:00:15.236Z,15.83
2019-06-10T06:01:15.060Z,15.97
2019-06-10T06:02:15.018Z,16.01
2019-06-10T06:03:15.013Z,16.01
2019-06-10T06:04:14.996Z,15.97
2019-06-10T06:05:14.984Z,15.91
2019-06-10T06:06:14.987Z,16.04
2019-06-10T06:07:14.977Z,16.04
2019-06-10T06:08:14.953Z,16.08
2019-06-10T06:09:14.936Z,16.10
2019-06-10T06:10:14.925Z,16.09
2019-06-10T06:11:14.926Z,16.09
2019-06-10T06:12:14.903Z,16.12
2019-06-10T06:13:14.891Z,16.09
2019-06-10T06:14:14.899Z,16.29
2019-06-10T06:15:14.871Z,16.23
2019-06-10T06:16:14.873Z,16.24
2019-06-10T06:17:16.817Z,16.29
2019-06-10T06:18:14.835Z,16.26
2019-06-10T06:19:14.822Z,16.24
2019-06-10T06:20:14.821Z,16.31
2019-06-10T06:21:25.229Z,16.31
2019-06-10T06:22:15.788Z,16.31
2019-06-10T06:23:14.784Z,16.39
2019-06-10T06:24:14.792Z,16.41
2019-06-10T06:25:15.663Z,16.47
2019-06-10T06:26:16.434Z,16.43
2019-06-10T06:27:14.737Z,16.53
2019-06-10T06:28:16.169Z,16.53
2019-06-10T06:29:14.716Z,16.50
2019-06-10T06:30:17.724Z,16.54
2019-06-10T06:31:14.694Z,16.64
2019-06-10T06:32:14.695Z,16.65
2019-06-10T06:33:14.672Z,16.78
2019-06-10T06:34:14.669Z,16.72
2019-06-10T06:35:14.642Z,16.84
2019-06-10T06:36:14.631Z,16.79
2019-06-10T06:37:14.647Z,16.89
2019-06-10T06:38:14.610Z,16.89
2019-06-10T06:39:14.599Z,17.02
2019-06-10T06:40:14.592Z,17.02
2019-06-10T06:41:14.581Z,17.08
2019-06-10T06:42:14.570Z,17.19
2019-06-10T06:43:14.578Z,17.14
2019-06-10T06:44:14.556Z,17.19
2019-06-10T06:45:14.532Z,17.16
2019-06-10T06:46:14.521Z,17.27
2019-06-10T06:47:14.511Z,17.19
2019-06-10T06:48:14.495Z,17.29
2019-06-10T06:49:14.496Z,17.22
2019-06-10T06:50:14.476Z,17.34
2019-06-10T06:51:14.465Z,17.36
2019-06-10T06:52:14.450Z,17.52
2019-06-10T06:53:27.863Z,17.52
2019-06-10T06:54:15.444Z,17.76
2019-06-10T06:55:14.418Z,17.71
2019-06-10T06:56:14.413Z,17.67
2019-06-10T06:57:14.394Z,17.78
2019-06-10T06:58:14.383Z,17.70
2019-06-10T06:59:14.378Z,17.70
2019-06-10T07:00:35.221Z,17.64
2019-06-10T07:01:15.355Z,17.71
2019-06-10T07:02:14.348Z,17.74
2019-06-10T07:03:14.333Z,17.82
2019-06-10T07:04:14.330Z,17.60
2019-06-10T07:05:14.315Z,17.63
2019-06-10T07:06:14.312Z,17.65
2019-06-10T07:07:14.284Z,17.71
2019-06-10T07:08:14.270Z,17.59
2019-06-10T07:09:14.260Z,17.63
2019-06-10T07:10:14.263Z,17.63
2019-06-10T07:11:14.248Z,17.59
2019-06-10T07:12:14.247Z,17.70
2019-06-10T07:13:14.217Z,17.72
2019-06-10T07:14:14.201Z,17.72
2019-06-10T07:15:14.192Z,17.79
2019-06-10T07:16:14.190Z,17.89
2019-06-10T07:17:14.174Z,17.90
2019-06-10T07:18:14.179Z,17.97
2019-06-10T07:19:14.156Z,17.98
2019-06-10T07:20:14.135Z,18.04
2019-06-10T07:21:14.129Z,18.03
2019-06-10T07:22:16.265Z,18.08
2019-06-10T07:23:14.100Z,18.04
2019-06-10T07:24:14.100Z,18.15
2019-06-10T07:25:14.094Z,18.08
2019-06-10T07:26:14.073Z,18.23
2019-06-10T07:27:14.072Z,18.19
2019-06-10T07:28:14.045Z,18.11
2019-06-10T07:29:14.045Z,18.10
2019-06-10T07:30:15.213Z,18.07
2019-06-10T07:31:23.634Z,18.10
2019-06-10T07:32:14.998Z,18.16
2019-06-10T07:33:14.008Z,18.22
2019-06-10T07:34:13.977Z,18.19
2019-06-10T07:35:13.966Z,18.25
2019-06-10T07:36:13.980Z,18.25
2019-06-10T07:37:13.943Z,18.20
2019-06-10T07:38:13.930Z,18.43
2019-06-10T07:39:13.944Z,18.44
2019-06-10T07:40:13.914Z,18.53
2019-06-10T07:41:13.897Z,18.34
2019-06-10T07:42:13.886Z,18.47
2019-06-10T07:43:13.875Z,18.43
2019-06-10T07:44:13.863Z,18.58
2019-06-10T07:45:13.866Z,18.44
2019-06-10T07:46:13.857Z,18.56
2019-06-10T07:47:13.840Z,18.55
2019-06-10T07:48:13.819Z,18.56
2019-06-10T07:49:13.809Z,18.60
2019-06-10T07:50:13.817Z,18.58
2019-06-10T07:51:13.784Z,18.71
2019-06-10T07:52:19.500Z,18.58
2019-06-10T07:53:14.767Z,18.71
2019-06-10T07:54:13.757Z,18.81
2019-06-10T07:55:13.749Z,18.86
2019-06-10T07:56:13.746Z,18.90
2019-06-10T07:57:13.717Z,18.90
2019-06-10T07:58:13.705Z,19.08
2019-06-10T07:59:13.694Z,18.96
2019-06-10T08:00:13.682Z,19.00
2019-06-10T08:01:13.691Z,19.07
2019-06-10T08:02:13.675Z,19.04
2019-06-10T08:03:13.649Z,18.95
2019-06-10T08:04:13.650Z,18.90
2019-06-10T08:05:13.629Z,18.98
2019-06-10T08:06:13.617Z,18.92
2019-06-10T08:07:13.606Z,18.92
2019-06-10T08:08:13.608Z,19.04
2019-06-10T08:09:13.582Z,19.16
2019-06-10T08:10:13.571Z,19.16
2019-06-10T08:11:14.187Z,19.22
2019-06-10T08:12:13.553Z,19.18
2019-06-10T08:13:13.553Z,19.14
2019-06-10T08:14:13.539Z,19.21
2019-06-10T08:15:13.519Z,19.30
2019-06-10T08:16:13.511Z,19.30
2019-06-10T08:17:13.493Z,19.26
2019-06-10T08:18:13.481Z,19.34
2019-06-10T08:19:30.282Z,19.36
2019-06-10T08:20:14.457Z,19.40
2019-06-10T08:21:13.448Z,19.54
2019-06-10T08:22:29.936Z,19.69
2019-06-10T08:23:14.430Z,19.69
2019-06-10T08:24:13.433Z,19.81
2019-06-10T08:25:13.424Z,19.89
2019-06-10T08:26:13.413Z,20.07
2019-06-10T08:27:13.400Z,20.18
2019-06-10T08:28:13.563Z,20.22
2019-06-10T08:29:13.369Z,20.29
2019-06-10T08:30:22.309Z,20.55
2019-06-10T08:31:14.356Z,20.56
2019-06-10T08:32:13.405Z,20.72
2019-06-10T08:33:13.763Z,20.81
2019-06-10T08:34:13.563Z,20.93
2019-06-10T08:35:13.293Z,20.99
2019-06-10T08:36:13.695Z,21.18
2019-06-10T08:37:13.738Z,21.33
2019-06-10T08:38:13.265Z,21.50
2019-06-10T08:39:15.983Z,21.42
2019-06-10T08:40:13.243Z,21.61
2019-06-10T08:41:13.224Z,21.70
2019-06-10T08:42:13.226Z,21.72
2019-06-10T08:43:13.415Z,21.70
2019-06-10T08:44:13.197Z,21.51
2019-06-10T08:45:13.190Z,21.48
2019-06-10T08:46:13.396Z,21.46
2019-06-10T08:47:13.157Z,21.52
2019-06-10T08:48:13.372Z,21.52
2019-06-10T08:49:13.137Z,21.57
2019-06-10T08:50:13.122Z,21.51
2019-06-10T08:51:13.132Z,21.61
2019-06-10T08:52:13.101Z,21.60
2019-06-10T08:53:15.537Z,21.62
2019-06-10T08:54:13.095Z,21.36
2019-06-10T08:55:13.069Z,21.35
2019-06-10T08:56:13.303Z,21.32
2019-06-10T08:57:13.053Z,21.09
2019-06-10T08:58:13.037Z,21.02
2019-06-10T08:59:13.023Z,20.82
2019-06-10T09:00:15.163Z,20.85
2019-06-10T09:01:13.485Z,20.87
2019-06-10T09:02:12.990Z,20.87
2019-06-10T09:03:12.984Z,20.87
2019-06-10T09:04:13.440Z,20.74
2019-06-10T09:05:12.956Z,20.72
2019-06-10T09:06:13.459Z,20.84
2019-06-10T09:07:12.952Z,20.99
2019-06-10T09:08:13.147Z,21.06
2019-06-10T09:09:13.077Z,21.27
2019-06-10T09:10:13.533Z,21.21
2019-06-10T09:11:13.242Z,21.40
2019-06-10T09:12:28.690Z,21.61
2019-06-10T09:13:13.867Z,21.57
2019-06-10T09:14:12.856Z,21.62
2019-06-10T09:15:13.082Z,21.64
2019-06-10T09:16:19.162Z,21.60
2019-06-10T09:17:13.841Z,21.43
2019-06-10T09:18:14.951Z,21.32
2019-06-10T09:19:13.285Z,21.40
2019-06-10T09:20:13.062Z,21.42
2019-06-10T09:21:12.984Z,21.48
2019-06-10T09:22:12.774Z,21.48
2019-06-10T09:23:21.041Z,21.40
2019-06-10T09:24:13.764Z,21.50
2019-06-10T09:25:12.739Z,21.45
2019-06-10T09:26:12.760Z,21.37
2019-06-10T09:27:13.467Z,21.35
2019-06-10T09:28:12.884Z,21.30
2019-06-10T09:29:13.465Z,21.35
2019-06-10T09:30:13.504Z,21.27
2019-06-10T09:31:14.128Z,21.33
2019-06-10T09:32:12.659Z,21.18
2019-06-10T09:33:13.044Z,21.22
2019-06-10T09:34:12.904Z,21.42
2019-06-10T09:35:12.783Z,21.64
2019-06-10T09:36:12.707Z,21.92
2019-06-10T09:37:12.613Z,21.95
2019-06-10T09:38:14.177Z,21.96
2019-06-10T09:39:13.127Z,21.91
2019-06-10T09:40:12.586Z,21.95
2019-06-10T09:41:14.130Z,21.89
2019-06-10T09:42:14.399Z,22.23
2019-06-10T09:43:12.945Z,22.29
2019-06-10T09:44:13.055Z,22.26
2019-06-10T09:45:12.944Z,22.14
2019-06-10T09:46:12.735Z,22.23
2019-06-10T09:47:14.315Z,22.30
2019-06-10T09:48:13.268Z,22.33
2019-06-10T09:49:12.761Z,22.29
2019-06-10T09:50:12.457Z,22.28
2019-06-10T09:51:12.547Z,22.36
2019-06-10T09:52:13.544Z,22.48
2019-06-10T09:53:16.671Z,22.53
2019-06-10T09:54:13.418Z,22.55
2019-06-10T09:55:12.881Z,22.60
2019-06-10T09:56:12.625Z,22.66
2019-06-10T09:57:12.744Z,22.75
2019-06-10T09:58:12.420Z,22.65
2019-06-10T09:59:12.590Z,22.78
2019-06-10T10:00:12.603Z,22.80
2019-06-10T10:01:13.395Z,22.73
2019-06-10T10:02:12.627Z,22.80
2019-06-10T10:03:12.494Z,23.02
2019-06-10T10:04:12.553Z,23.09
2019-06-10T10:05:12.304Z,23.13
2019-06-10T10:06:15.632Z,23.20
2019-06-10T10:07:12.314Z,23.34
2019-06-10T10:08:12.837Z,23.41
2019-06-10T10:09:12.246Z,23.48
2019-06-10T10:10:12.910Z,23.47
2019-06-10T10:11:12.936Z,23.12
2019-06-10T10:12:12.347Z,23.32
2019-06-10T10:13:13.061Z,23.37
2019-06-10T10:14:15.829Z,23.48
2019-06-10T10:15:26.591Z,23.73
2019-06-10T10:16:13.342Z,23.86
2019-06-10T10:17:12.832Z,23.98
2019-06-10T10:18:13.452Z,23.84
2019-06-10T10:19:13.103Z,23.81
2019-06-10T10:20:12.349Z,23.92
2019-06-10T10:21:13.112Z,23.92
2019-06-10T10:22:13.984Z,23.91
2019-06-10T10:23:13.663Z,23.78
2019-06-10T10:24:14.895Z,23.66
2019-06-10T10:25:14.416Z,23.56
2019-06-10T10:26:13.052Z,23.66
2019-06-10T10:27:13.462Z,23.78
2019-06-10T10:28:13.410Z,23.92
2019-06-10T10:29:13.082Z,23.98
2019-06-10T10:30:13.530Z,23.98
2019-06-10T10:31:13.107Z,24.10
2019-06-10T10:32:13.195Z,24.13
2019-06-10T10:33:12.877Z,24.18
2019-06-10T10:34:13.479Z,24.01
2019-06-10T10:35:12.628Z,23.92
2019-06-10T10:36:14.041Z,23.78
2019-06-10T10:37:12.438Z,23.83
2019-06-10T10:38:14.359Z,23.98
2019-06-10T10:39:13.978Z,24.03
2019-06-10T10:40:12.382Z,24.02
2019-06-10T10:41:13.311Z,24.17
2019-06-10T10:42:12.637Z,24.03
2019-06-10T10:43:25.147Z,23.91
2019-06-10T10:44:13.845Z,23.77
2019-06-10T10:45:13.280Z,23.81
2019-06-10T10:46:13.867Z,23.76
2019-06-10T10:47:12.468Z,23.83
2019-06-10T10:48:13.723Z,23.91
2019-06-10T10:49:13.330Z,23.69
2019-06-10T10:50:13.980Z,23.77
2019-06-10T10:51:13.197Z,23.76
2019-06-10T10:52:12.935Z,23.83
2019-06-10T10:53:12.857Z,23.91
2019-06-10T10:54:22.512Z,24.11
2019-06-10T10:55:13.132Z,24.28
2019-06-10T10:56:12.858Z,24.32
2019-06-10T10:57:13.167Z,24.50
2019-06-10T10:58:12.894Z,24.45
2019-06-10T10:59:12.834Z,24.39
2019-06-10T11:00:12.406Z,24.53
2019-06-10T11:01:15.139Z,24.45
2019-06-10T11:02:12.668Z,24.40
2019-06-10T11:03:13.394Z,24.43
2019-06-10T11:04:13.259Z,24.39
2019-06-10T11:05:12.825Z,24.36
2019-06-10T11:06:12.864Z,24.33
2019-06-10T11:07:12.963Z,24.26
2019-06-10T11:08:13.580Z,24.10
2019-06-10T11:09:13.020Z,24.17
2019-06-10T11:10:12.659Z,24.24
2019-06-10T11:11:13.524Z,24.33
2019-06-10T11:12:11.546Z,24.38
2019-06-10T11:13:11.543Z,24.51
2019-06-10T11:14:15.066Z,24.55
2019-06-10T11:15:13.669Z,24.57
2019-06-10T11:16:11.496Z,24.55
2019-06-10T11:17:11.487Z,24.63
2019-06-10T11:18:12.670Z,24.58
2019-06-10T11:19:12.967Z,24.81
2019-06-10T11:20:13.640Z,24.86
2019-06-10T11:21:13.234Z,24.98
2019-06-10T11:22:12.630Z,25.10
2019-06-10T11:23:12.361Z,25.10
2019-06-10T11:24:14.260Z,25.26
2019-06-10T11:25:12.549Z,25.22
2019-06-10T11:26:12.469Z,25.33
2019-06-10T11:27:12.724Z,25.29
2019-06-10T11:28:11.366Z,25.35
2019-06-10T11:29:11.347Z,25.40
2019-06-10T11:30:12.372Z,25.25
2019-06-10T11:31:13.872Z,25.26
2019-06-10T11:32:11.316Z,25.38
2019-06-10T11:33:11.319Z,25.38
2019-06-10T11:34:11.633Z,25.35
2019-06-10T11:35:12.169Z,25.44
2019-06-10T11:36:13.484Z,25.17
2019-06-10T11:37:12.677Z,25.11
2019-06-10T11:38:12.861Z,24.99
2019-06-10T11:39:13.342Z,25.03
2019-06-10T11:40:13.567Z,25.07
2019-06-10T11:41:13.390Z,24.99
2019-06-10T11:42:13.227Z,25.13
2019-06-10T11:43:13.066Z,25.10
2019-06-10T11:44:11.180Z,25.23
2019-06-10T11:45:11.638Z,25.40
2019-06-10T11:46:13.734Z,25.40
2019-06-10T11:47:13.148Z,25.38
2019-06-10T11:48:12.943Z,25.44
2019-06-10T11:49:12.576Z,25.33
2019-06-10T11:50:12.139Z,25.25
2019-06-10T11:51:12.946Z,25.18
2019-06-10T11:52:12.592Z,25.13
2019-06-10T11:53:12.830Z,25.11
2019-06-10T11:54:12.893Z,24.96
2019-06-10T11:55:16.551Z,24.86
2019-06-10T11:56:13.071Z,24.81
2019-06-10T11:57:12.527Z,24.89
2019-06-10T11:58:11.030Z,24.89
2019-06-10T11:59:13.371Z,25.01
2019-06-10T12:00:14.849Z,25.11
2019-06-10T12:01:13.162Z,25.16
2019-06-10T12:02:13.264Z,25.10
2019-06-10T12:03:13.043Z,25.21
2019-06-10T12:04:12.864Z,25.28
2019-06-10T12:05:13.008Z,25.43
2019-06-10T12:06:13.308Z,25.38
2019-06-10T12:07:12.836Z,25.43
2019-06-10T12:08:13.052Z,25.28
2019-06-10T12:09:13.528Z,25.38
2019-06-10T12:10:12.857Z,25.28
2019-06-10T12:11:12.608Z,25.18
2019-06-10T12:12:12.937Z,25.13
2019-06-10T12:13:13.229Z,25.22
2019-06-10T12:14:12.916Z,25.32
2019-06-10T12:15:12.132Z,25.26
2019-06-10T12:17:05.780Z,25.35
2019-06-10T12:17:24.899Z,25.46
2019-06-10T12:18:13.143Z,25.60
2019-06-10T12:19:12.713Z,25.58
2019-06-10T12:20:13.224Z,25.43
2019-06-10T12:21:13.215Z,25.35
2019-06-10T12:22:13.210Z,25.41
2019-06-10T12:23:12.653Z,25.38
2019-06-10T12:24:12.641Z,25.46
2019-06-10T12:25:31.556Z,25.46
2019-06-10T12:26:11.798Z,25.46
2019-06-10T12:27:12.965Z,25.08
2019-06-10T12:28:12.868Z,25.01
2019-06-10T12:29:12.419Z,24.91
2019-06-10T12:30:13.072Z,24.88
2019-06-10T12:31:13.427Z,24.91
2019-06-10T12:32:13.359Z,24.96
2019-06-10T12:33:20.026Z,25.22
2019-06-10T12:34:12.497Z,25.28
2019-06-10T12:35:13.515Z,25.44
2019-06-10T12:36:12.883Z,25.40
2019-06-10T12:37:15.146Z,25.50
2019-06-10T12:38:13.823Z,25.60
2019-06-10T12:39:14.265Z,25.78
2019-06-10T12:40:12.744Z,25.81
2019-06-10T12:41:13.808Z,25.59
2019-06-10T12:42:13.961Z,25.72
2019-06-10T12:43:12.693Z,25.50
2019-06-10T12:44:12.386Z,25.46
2019-06-10T12:45:12.617Z,25.53
2019-06-10T12:46:12.807Z,25.65
2019-06-10T12:47:10.483Z,25.59
2019-06-10T12:48:10.463Z,25.29
2019-06-10T12:49:12.813Z,25.07
2019-06-10T12:50:12.049Z,25.14
2019-06-10T12:51:12.789Z,25.26
2019-06-10T12:52:12.520Z,25.43